sensor_id;sensor_type;location;lat;lon;timestamp;temperature;humidity
22290;DHT22;11313;50.116;8.424;2023-04-25T00:01:14;23.40;44.50
22290;DHT22;11313;50.116;8.424;2023-04-25T00:03:40;23.40;44.60
22290;DHT22;11313;50.116;8.424;2023-04-25T00:06:06;23.40;44.60
22290;DHT22;11313;50.116;8.424;2023-04-25T00:08:32;23.40;44.50
22290;DHT22;11313;50.116;8.424;2023-04-25T00:10:58;23.40;44.60
22290;DHT22;11313;50.116;8.424;2023-04-25T00:13:23;23.40;44.50
22290;DHT22;11313;50.116;8.424;2023-04-25T00:15:51;23.40;44.60
22290;DHT22;11313;50.116;8.424;2023-04-25T00:18:16;23.40;44.50
22290;DHT22;11313;50.116;8.424;2023-04-25T00:20:43;23.40;44.50
22290;DHT22;11313;50.116;8.424;2023-04-25T00:23:20;23.40;44.50
22290;DHT22;11313;50.116;8.424;2023-04-25T00:25:48;23.40;44.50
22290;DHT22;11313;50.116;8.424;2023-04-25T00:28:13;23.50;44.60
22290;DHT22;11313;50.116;8.424;2023-04-25T00:30:40;23.40;44.50
22290;DHT22;11313;50.116;8.424;2023-04-25T00:33:06;23.50;44.60
22290;DHT22;11313;50.116;8.424;2023-04-25T00:35:32;23.50;44.50
22290;DHT22;11313;50.116;8.424;2023-04-25T00:37:57;23.50;44.50
22290;DHT22;11313;50.116;8.424;2023-04-25T00:40:23;23.50;44.50
22290;DHT22;11313;50.116;8.424;2023-04-25T00:42:49;23.50;44.50
22290;DHT22;11313;50.116;8.424;2023-04-25T00:45:17;23.50;44.50
22290;DHT22;11313;50.116;8.424;2023-04-25T00:47:43;23.50;44.50
22290;DHT22;11313;50.116;8.424;2023-04-25T00:50:10;23.50;44.50
22290;DHT22;11313;50.116;8.424;2023-04-25T00:52:38;23.50;44.40
22290;DHT22;11313;50.116;8.424;2023-04-25T00:55:05;23.50;44.40
22290;DHT22;11313;50.116;8.424;2023-04-25T00:57:30;23.50;44.40
22290;DHT22;11313;50.116;8.424;2023-04-25T00:59:56;23.60;44.40
22290;DHT22;11313;50.116;8.424;2023-04-25T01:02:22;23.60;44.50
22290;DHT22;11313;50.116;8.424;2023-04-25T01:04:48;23.60;44.40
22290;DHT22;11313;50.116;8.424;2023-04-25T01:07:14;23.50;44.40
22290;DHT22;11313;50.116;8.424;2023-04-25T01:09:40;23.60;44.40
22290;DHT22;11313;50.116;8.424;2023-04-25T01:12:06;23.50;44.40
22290;DHT22;11313;50.116;8.424;2023-04-25T01:14:32;23.60;44.40
22290;DHT22;11313;50.116;8.424;2023-04-25T01:16:58;23.60;44.40
22290;DHT22;11313;50.116;8.424;2023-04-25T01:19:24;23.60;44.30
22290;DHT22;11313;50.116;8.424;2023-04-25T01:21:50;23.60;44.30
22290;DHT22;11313;50.116;8.424;2023-04-25T01:24:16;23.60;44.30
22290;DHT22;11313;50.116;8.424;2023-04-25T01:26:42;23.60;44.30
22290;DHT22;11313;50.116;8.424;2023-04-25T01:29:16;23.60;44.30
22290;DHT22;11313;50.116;8.424;2023-04-25T01:31:43;23.60;44.30
22290;DHT22;11313;50.116;8.424;2023-04-25T01:34:09;23.60;44.30
22290;DHT22;11313;50.116;8.424;2023-04-25T01:36:35;23.60;44.40
22290;DHT22;11313;50.116;8.424;2023-04-25T01:39:01;23.60;44.30
22290;DHT22;11313;50.116;8.424;2023-04-25T01:41:27;23.60;44.30
22290;DHT22;11313;50.116;8.424;2023-04-25T01:43:53;23.60;44.30
22290;DHT22;11313;50.116;8.424;2023-04-25T01:46:19;23.60;44.30
22290;DHT22;11313;50.116;8.424;2023-04-25T01:48:44;23.60;44.40
22290;DHT22;11313;50.116;8.424;2023-04-25T01:51:12;23.60;44.30
22290;DHT22;11313;50.116;8.424;2023-04-25T01:53:38;23.60;44.30
22290;DHT22;11313;50.116;8.424;2023-04-25T01:56:04;23.60;44.30
22290;DHT22;11313;50.116;8.424;2023-04-25T01:58:30;23.60;44.40
22290;DHT22;11313;50.116;8.424;2023-04-25T02:00:56;23.60;44.30
22290;DHT22;11313;50.116;8.424;2023-04-25T02:03:21;23.60;44.30
22290;DHT22;11313;50.116;8.424;2023-04-25T02:05:47;23.60;44.40
22290;DHT22;11313;50.116;8.424;2023-04-25T02:08:13;23.60;44.30
22290;DHT22;11313;50.116;8.424;2023-04-25T02:10:38;23.60;44.40
22290;DHT22;11313;50.116;8.424;2023-04-25T02:13:04;23.60;44.30
22290;DHT22;11313;50.116;8.424;2023-04-25T02:15:30;23.60;44.40
22290;DHT22;11313;50.116;8.424;2023-04-25T02:17:56;23.60;44.30
22290;DHT22;11313;50.116;8.424;2023-04-25T02:20:24;23.60;44.40
22290;DHT22;11313;50.116;8.424;2023-04-25T02:22:50;23.50;44.30
22290;DHT22;11313;50.116;8.424;2023-04-25T02:25:16;23.60;44.30
22290;DHT22;11313;50.116;8.424;2023-04-25T02:27:42;23.60;44.40
22290;DHT22;11313;50.116;8.424;2023-04-25T02:30:08;23.50;44.30
22290;DHT22;11313;50.116;8.424;2023-04-25T02:32:34;23.50;44.30
22290;DHT22;11313;50.116;8.424;2023-04-25T02:35:00;23.60;44.30
22290;DHT22;11313;50.116;8.424;2023-04-25T02:37:30;23.60;44.40
22290;DHT22;11313;50.116;8.424;2023-04-25T02:39:55;23.60;44.40
22290;DHT22;11313;50.116;8.424;2023-04-25T02:42:21;23.60;44.40
22290;DHT22;11313;50.116;8.424;2023-04-25T02:44:46;23.50;44.30
22290;DHT22;11313;50.116;8.424;2023-04-25T02:47:12;23.50;44.30
22290;DHT22;11313;50.116;8.424;2023-04-25T02:49:37;23.60;44.40
22290;DHT22;11313;50.116;8.424;2023-04-25T02:52:03;23.50;44.40
22290;DHT22;11313;50.116;8.424;2023-04-25T02:54:29;23.50;44.40
22290;DHT22;11313;50.116;8.424;2023-04-25T02:56:55;23.50;44.40
22290;DHT22;11313;50.116;8.424;2023-04-25T02:59:21;23.50;44.40
22290;DHT22;11313;50.116;8.424;2023-04-25T03:01:46;23.50;44.40
22290;DHT22;11313;50.116;8.424;2023-04-25T03:04:12;23.50;44.40
22290;DHT22;11313;50.116;8.424;2023-04-25T03:06:37;23.50;44.40
22290;DHT22;11313;50.116;8.424;2023-04-25T03:09:03;23.50;44.40
22290;DHT22;11313;50.116;8.424;2023-04-25T03:11:29;23.50;44.40
22290;DHT22;11313;50.116;8.424;2023-04-25T03:13:54;23.50;44.40
22290;DHT22;11313;50.116;8.424;2023-04-25T03:16:20;23.50;44.50
22290;DHT22;11313;50.116;8.424;2023-04-25T03:18:46;23.50;44.50
22290;DHT22;11313;50.116;8.424;2023-04-25T03:21:11;23.50;44.50
22290;DHT22;11313;50.116;8.424;2023-04-25T03:23:37;23.50;44.50
22290;DHT22;11313;50.116;8.424;2023-04-25T03:26:03;23.50;44.50
22290;DHT22;11313;50.116;8.424;2023-04-25T03:28:28;23.50;44.50
22290;DHT22;11313;50.116;8.424;2023-04-25T03:30:53;23.50;44.50
22290;DHT22;11313;50.116;8.424;2023-04-25T03:33:19;23.50;44.50
22290;DHT22;11313;50.116;8.424;2023-04-25T03:35:45;23.50;44.50
22290;DHT22;11313;50.116;8.424;2023-04-25T03:38:10;23.50;44.50
22290;DHT22;11313;50.116;8.424;2023-04-25T03:40:36;23.50;44.50
22290;DHT22;11313;50.116;8.424;2023-04-25T03:43:01;23.50;44.50
22290;DHT22;11313;50.116;8.424;2023-04-25T03:45:27;23.50;44.60
22290;DHT22;11313;50.116;8.424;2023-04-25T03:47:52;23.40;44.40
22290;DHT22;11313;50.116;8.424;2023-04-25T03:50:18;23.50;44.60
22290;DHT22;11313;50.116;8.424;2023-04-25T03:52:43;23.50;44.60
22290;DHT22;11313;50.116;8.424;2023-04-25T03:55:09;23.40;44.50
22290;DHT22;11313;50.116;8.424;2023-04-25T03:57:35;23.50;44.60
22290;DHT22;11313;50.116;8.424;2023-04-25T04:00:01;23.40;44.50
22290;DHT22;11313;50.116;8.424;2023-04-25T04:02:27;23.50;44.60
22290;DHT22;11313;50.116;8.424;2023-04-25T04:04:52;23.40;44.50
22290;DHT22;11313;50.116;8.424;2023-04-25T04:07:18;23.40;44.50
22290;DHT22;11313;50.116;8.424;2023-04-25T04:09:43;23.40;44.60
22290;DHT22;11313;50.116;8.424;2023-04-25T04:12:09;23.40;44.50
22290;DHT22;11313;50.116;8.424;2023-04-25T04:14:35;23.40;44.50
22290;DHT22;11313;50.116;8.424;2023-04-25T04:17:00;23.40;44.50
22290;DHT22;11313;50.116;8.424;2023-04-25T04:19:26;23.40;44.60
22290;DHT22;11313;50.116;8.424;2023-04-25T04:21:51;23.40;44.60
22290;DHT22;11313;50.116;8.424;2023-04-25T04:24:17;23.40;44.60
22290;DHT22;11313;50.116;8.424;2023-04-25T04:26:42;23.40;44.60
22290;DHT22;11313;50.116;8.424;2023-04-25T04:29:10;23.40;44.70
22290;DHT22;11313;50.116;8.424;2023-04-25T04:31:36;23.40;44.80
22290;DHT22;11313;50.116;8.424;2023-04-25T04:34:02;23.40;44.70
22290;DHT22;11313;50.116;8.424;2023-04-25T04:36:29;23.40;44.70
22290;DHT22;11313;50.116;8.424;2023-04-25T04:38:54;23.40;44.80
22290;DHT22;11313;50.116;8.424;2023-04-25T04:41:21;23.40;44.80
22290;DHT22;11313;50.116;8.424;2023-04-25T04:43:47;23.40;44.80
22290;DHT22;11313;50.116;8.424;2023-04-25T04:46:13;23.40;44.80
22290;DHT22;11313;50.116;8.424;2023-04-25T04:48:38;23.40;44.80
22290;DHT22;11313;50.116;8.424;2023-04-25T04:51:05;23.40;44.80
22290;DHT22;11313;50.116;8.424;2023-04-25T04:53:31;23.40;44.80
22290;DHT22;11313;50.116;8.424;2023-04-25T04:55:56;23.40;44.80
22290;DHT22;11313;50.116;8.424;2023-04-25T04:58:22;23.40;44.80
22290;DHT22;11313;50.116;8.424;2023-04-25T05:00:48;23.40;44.80
22290;DHT22;11313;50.116;8.424;2023-04-25T05:03:13;23.40;44.90
22290;DHT22;11313;50.116;8.424;2023-04-25T05:05:39;23.40;44.90
22290;DHT22;11313;50.116;8.424;2023-04-25T05:08:07;23.40;45.00
22290;DHT22;11313;50.116;8.424;2023-04-25T05:10:33;23.50;45.20
22290;DHT22;11313;50.116;8.424;2023-04-25T05:12:59;23.50;45.20
22290;DHT22;11313;50.116;8.424;2023-04-25T05:15:24;23.50;45.10
22290;DHT22;11313;50.116;8.424;2023-04-25T05:17:50;23.50;45.10
22290;DHT22;11313;50.116;8.424;2023-04-25T05:20:15;23.50;45.10
22290;DHT22;11313;50.116;8.424;2023-04-25T05:22:41;23.50;45.10
22290;DHT22;11313;50.116;8.424;2023-04-25T05:25:08;23.50;45.10
22290;DHT22;11313;50.116;8.424;2023-04-25T05:27:34;23.50;45.10
22290;DHT22;11313;50.116;8.424;2023-04-25T05:29:59;23.50;45.00
22290;DHT22;11313;50.116;8.424;2023-04-25T05:32:25;23.50;45.10
22290;DHT22;11313;50.116;8.424;2023-04-25T05:34:51;23.60;45.10
22290;DHT22;11313;50.116;8.424;2023-04-25T05:37:17;23.50;45.00
22290;DHT22;11313;50.116;8.424;2023-04-25T05:39:42;23.50;45.00
22290;DHT22;11313;50.116;8.424;2023-04-25T05:42:08;23.60;45.10
22290;DHT22;11313;50.116;8.424;2023-04-25T05:44:33;23.60;45.10
22290;DHT22;11313;50.116;8.424;2023-04-25T05:46:59;23.60;45.00
22290;DHT22;11313;50.116;8.424;2023-04-25T05:49:25;23.50;45.00
22290;DHT22;11313;50.116;8.424;2023-04-25T05:51:50;23.60;45.00
22290;DHT22;11313;50.116;8.424;2023-04-25T05:54:16;23.60;45.00
22290;DHT22;11313;50.116;8.424;2023-04-25T05:56:41;23.60;45.00
22290;DHT22;11313;50.116;8.424;2023-04-25T05:59:07;23.60;45.00
22290;DHT22;11313;50.116;8.424;2023-04-25T06:01:32;23.50;45.00
22290;DHT22;11313;50.116;8.424;2023-04-25T06:03:58;23.60;45.00
22290;DHT22;11313;50.116;8.424;2023-04-25T06:06:23;23.60;45.00
22290;DHT22;11313;50.116;8.424;2023-04-25T06:08:49;23.60;45.10
22290;DHT22;11313;50.116;8.424;2023-04-25T06:11:15;23.60;45.10
22290;DHT22;11313;50.116;8.424;2023-04-25T06:13:41;23.60;45.10
22290;DHT22;11313;50.116;8.424;2023-04-25T06:16:06;23.60;45.10
22290;DHT22;11313;50.116;8.424;2023-04-25T06:18:32;23.60;45.00
22290;DHT22;11313;50.116;8.424;2023-04-25T06:20:58;23.60;45.00
22290;DHT22;11313;50.116;8.424;2023-04-25T06:23:23;23.60;45.00
22290;DHT22;11313;50.116;8.424;2023-04-25T06:25:49;23.60;45.00
22290;DHT22;11313;50.116;8.424;2023-04-25T06:28:14;23.60;45.00
22290;DHT22;11313;50.116;8.424;2023-04-25T06:30:40;23.60;45.00
22290;DHT22;11313;50.116;8.424;2023-04-25T06:33:05;23.60;45.00
22290;DHT22;11313;50.116;8.424;2023-04-25T06:35:31;23.60;45.60
22290;DHT22;11313;50.116;8.424;2023-04-25T06:37:57;23.60;44.90
22290;DHT22;11313;50.116;8.424;2023-04-25T06:40:22;23.60;45.00
22290;DHT22;11313;50.116;8.424;2023-04-25T06:42:48;23.60;45.00
22290;DHT22;11313;50.116;8.424;2023-04-25T06:45:13;23.60;44.90
22290;DHT22;11313;50.116;8.424;2023-04-25T06:47:39;23.60;44.90
22290;DHT22;11313;50.116;8.424;2023-04-25T06:50:05;23.60;44.90
22290;DHT22;11313;50.116;8.424;2023-04-25T06:52:31;23.60;44.90
22290;DHT22;11313;50.116;8.424;2023-04-25T06:54:56;23.60;44.90
22290;DHT22;11313;50.116;8.424;2023-04-25T06:57:22;23.60;44.90
22290;DHT22;11313;50.116;8.424;2023-04-25T06:59:47;23.60;44.90
22290;DHT22;11313;50.116;8.424;2023-04-25T07:02:13;23.60;44.90
22290;DHT22;11313;50.116;8.424;2023-04-25T07:04:38;23.60;44.90
22290;DHT22;11313;50.116;8.424;2023-04-25T07:07:04;23.60;44.90
22290;DHT22;11313;50.116;8.424;2023-04-25T07:09:29;23.60;44.90
22290;DHT22;11313;50.116;8.424;2023-04-25T07:11:55;23.60;44.90
22290;DHT22;11313;50.116;8.424;2023-04-25T07:14:22;23.60;44.90
22290;DHT22;11313;50.116;8.424;2023-04-25T07:16:47;23.60;44.90
22290;DHT22;11313;50.116;8.424;2023-04-25T07:19:13;23.60;44.90
22290;DHT22;11313;50.116;8.424;2023-04-25T07:21:38;23.60;44.90
22290;DHT22;11313;50.116;8.424;2023-04-25T07:24:04;23.60;44.90
22290;DHT22;11313;50.116;8.424;2023-04-25T07:26:30;23.60;44.90
22290;DHT22;11313;50.116;8.424;2023-04-25T07:28:55;23.60;44.90
22290;DHT22;11313;50.116;8.424;2023-04-25T07:31:21;23.60;44.90
22290;DHT22;11313;50.116;8.424;2023-04-25T07:33:47;23.60;44.90
22290;DHT22;11313;50.116;8.424;2023-04-25T07:36:13;23.60;44.90
22290;DHT22;11313;50.116;8.424;2023-04-25T07:38:40;23.60;44.90
22290;DHT22;11313;50.116;8.424;2023-04-25T07:41:06;23.60;44.90
22290;DHT22;11313;50.116;8.424;2023-04-25T07:43:31;23.60;44.90
22290;DHT22;11313;50.116;8.424;2023-04-25T07:45:57;23.60;44.90
22290;DHT22;11313;50.116;8.424;2023-04-25T07:48:22;23.60;44.90
22290;DHT22;11313;50.116;8.424;2023-04-25T07:50:48;23.60;44.90
22290;DHT22;11313;50.116;8.424;2023-04-25T07:53:14;23.60;44.90
22290;DHT22;11313;50.116;8.424;2023-04-25T07:55:39;23.60;44.90
22290;DHT22;11313;50.116;8.424;2023-04-25T07:58:09;23.50;44.80
22290;DHT22;11313;50.116;8.424;2023-04-25T08:00:35;23.60;44.90
22290;DHT22;11313;50.116;8.424;2023-04-25T08:03:02;23.60;44.90
22290;DHT22;11313;50.116;8.424;2023-04-25T08:05:28;23.60;44.90
22290;DHT22;11313;50.116;8.424;2023-04-25T08:07:53;23.60;44.80
22290;DHT22;11313;50.116;8.424;2023-04-25T08:10:19;23.60;44.90
22290;DHT22;11313;50.116;8.424;2023-04-25T08:12:44;23.60;44.80
22290;DHT22;11313;50.116;8.424;2023-04-25T08:15:10;23.60;44.80
22290;DHT22;11313;50.116;8.424;2023-04-25T08:17:36;23.60;44.80
22290;DHT22;11313;50.116;8.424;2023-04-25T08:20:01;23.60;44.80
22290;DHT22;11313;50.116;8.424;2023-04-25T08:22:30;23.60;44.70
22290;DHT22;11313;50.116;8.424;2023-04-25T08:24:56;23.60;44.70
22290;DHT22;11313;50.116;8.424;2023-04-25T08:27:21;23.60;44.70
22290;DHT22;11313;50.116;8.424;2023-04-25T08:29:47;23.70;44.70
22290;DHT22;11313;50.116;8.424;2023-04-25T08:32:12;23.70;44.70
22290;DHT22;11313;50.116;8.424;2023-04-25T08:34:38;23.70;44.60
22290;DHT22;11313;50.116;8.424;2023-04-25T08:37:07;23.70;44.60
22290;DHT22;11313;50.116;8.424;2023-04-25T08:39:33;23.70;44.60
22290;DHT22;11313;50.116;8.424;2023-04-25T08:41:59;23.70;44.60
22290;DHT22;11313;50.116;8.424;2023-04-25T08:44:26;23.70;44.60
22290;DHT22;11313;50.116;8.424;2023-04-25T08:46:52;23.70;44.60
22290;DHT22;11313;50.116;8.424;2023-04-25T08:49:18;23.70;44.60
22290;DHT22;11313;50.116;8.424;2023-04-25T08:51:46;23.70;44.50
22290;DHT22;11313;50.116;8.424;2023-04-25T08:54:13;23.70;44.50
22290;DHT22;11313;50.116;8.424;2023-04-25T08:56:41;23.80;44.50
22290;DHT22;11313;50.116;8.424;2023-04-25T08:59:06;23.80;44.50
22290;DHT22;11313;50.116;8.424;2023-04-25T09:01:34;23.80;44.50
22290;DHT22;11313;50.116;8.424;2023-04-25T09:04:03;23.70;44.40
22290;DHT22;11313;50.116;8.424;2023-04-25T09:06:32;23.80;44.50
22290;DHT22;11313;50.116;8.424;2023-04-25T09:09:06;23.80;44.50
22290;DHT22;11313;50.116;8.424;2023-04-25T09:11:33;23.80;44.40
22290;DHT22;11313;50.116;8.424;2023-04-25T09:14:19;23.80;44.50
22290;DHT22;11313;50.116;8.424;2023-04-25T09:19:30;23.80;44.40
22290;DHT22;11313;50.116;8.424;2023-04-25T09:22:00;23.80;44.40
22290;DHT22;11313;50.116;8.424;2023-04-25T09:24:39;23.80;44.30
22290;DHT22;11313;50.116;8.424;2023-04-25T09:27:09;23.80;44.30
22290;DHT22;11313;50.116;8.424;2023-04-25T09:29:37;23.80;44.30
22290;DHT22;11313;50.116;8.424;2023-04-25T09:32:23;23.80;44.30
22290;DHT22;11313;50.116;8.424;2023-04-25T09:34:56;23.80;44.30
22290;DHT22;11313;50.116;8.424;2023-04-25T09:37:24;23.80;44.30
22290;DHT22;11313;50.116;8.424;2023-04-25T09:39:53;23.80;44.30
22290;DHT22;11313;50.116;8.424;2023-04-25T09:42:22;23.80;44.30
22290;DHT22;11313;50.116;8.424;2023-04-25T09:44:49;23.80;44.30
22290;DHT22;11313;50.116;8.424;2023-04-25T09:47:16;23.80;44.30
22290;DHT22;11313;50.116;8.424;2023-04-25T09:49:43;23.80;44.30
22290;DHT22;11313;50.116;8.424;2023-04-25T09:52:13;23.80;44.30
22290;DHT22;11313;50.116;8.424;2023-04-25T09:54:38;23.80;44.30
22290;DHT22;11313;50.116;8.424;2023-04-25T09:57:12;23.80;44.30
22290;DHT22;11313;50.116;8.424;2023-04-25T09:59:39;23.80;44.30
22290;DHT22;11313;50.116;8.424;2023-04-25T10:02:08;23.90;44.40
22290;DHT22;11313;50.116;8.424;2023-04-25T10:04:35;23.80;44.20
22290;DHT22;11313;50.116;8.424;2023-04-25T10:07:03;23.80;44.20
22290;DHT22;11313;50.116;8.424;2023-04-25T10:09:29;23.80;44.30
22290;DHT22;11313;50.116;8.424;2023-04-25T10:11:58;23.80;44.20
22290;DHT22;11313;50.116;8.424;2023-04-25T10:14:24;23.90;44.30
22290;DHT22;11313;50.116;8.424;2023-04-25T10:16:50;23.90;44.30
22290;DHT22;11313;50.116;8.424;2023-04-25T10:19:19;23.80;44.20
22290;DHT22;11313;50.116;8.424;2023-04-25T10:21:55;23.80;44.20
22290;DHT22;11313;50.116;8.424;2023-04-25T10:24:22;23.90;44.30
22290;DHT22;11313;50.116;8.424;2023-04-25T10:26:48;23.80;44.20
22290;DHT22;11313;50.116;8.424;2023-04-25T10:29:22;23.80;44.20
22290;DHT22;11313;50.116;8.424;2023-04-25T10:31:48;23.80;44.20
22290;DHT22;11313;50.116;8.424;2023-04-25T10:34:14;23.80;44.20
22290;DHT22;11313;50.116;8.424;2023-04-25T10:36:40;23.80;44.20
22290;DHT22;11313;50.116;8.424;2023-04-25T10:39:06;23.80;44.20
22290;DHT22;11313;50.116;8.424;2023-04-25T10:41:45;23.80;44.20
22290;DHT22;11313;50.116;8.424;2023-04-25T10:44:11;23.90;44.30
22290;DHT22;11313;50.116;8.424;2023-04-25T10:46:37;23.80;44.20
22290;DHT22;11313;50.116;8.424;2023-04-25T10:49:03;23.80;44.30
22290;DHT22;11313;50.116;8.424;2023-04-25T10:51:31;23.80;44.30
22290;DHT22;11313;50.116;8.424;2023-04-25T10:54:02;23.80;44.20
22290;DHT22;11313;50.116;8.424;2023-04-25T10:56:30;23.80;44.20
22290;DHT22;11313;50.116;8.424;2023-04-25T10:59:07;23.80;44.20
22290;DHT22;11313;50.116;8.424;2023-04-25T11:01:48;23.80;44.20
22290;DHT22;11313;50.116;8.424;2023-04-25T11:04:28;23.80;44.20
22290;DHT22;11313;50.116;8.424;2023-04-25T11:07:13;23.80;44.30
22290;DHT22;11313;50.116;8.424;2023-04-25T11:09:44;23.80;44.30
22290;DHT22;11313;50.116;8.424;2023-04-25T11:12:11;23.80;44.30
22290;DHT22;11313;50.116;8.424;2023-04-25T11:14:40;23.80;44.30
22290;DHT22;11313;50.116;8.424;2023-04-25T11:17:05;23.80;45.00
22290;DHT22;11313;50.116;8.424;2023-04-25T11:19:31;23.80;44.30
22290;DHT22;11313;50.116;8.424;2023-04-25T11:22:01;23.80;44.30
22290;DHT22;11313;50.116;8.424;2023-04-25T11:24:30;23.80;44.30
22290;DHT22;11313;50.116;8.424;2023-04-25T11:26:58;23.80;44.30
22290;DHT22;11313;50.116;8.424;2023-04-25T11:29:27;23.80;44.30
22290;DHT22;11313;50.116;8.424;2023-04-25T11:31:53;23.80;44.30
22290;DHT22;11313;50.116;8.424;2023-04-25T11:34:21;23.80;44.30
22290;DHT22;11313;50.116;8.424;2023-04-25T11:36:47;23.80;44.30
22290;DHT22;11313;50.116;8.424;2023-04-25T11:39:12;23.80;44.30
22290;DHT22;11313;50.116;8.424;2023-04-25T11:41:38;23.80;44.30
22290;DHT22;11313;50.116;8.424;2023-04-25T11:44:04;23.80;44.30
22290;DHT22;11313;50.116;8.424;2023-04-25T11:46:30;23.80;44.30
22290;DHT22;11313;50.116;8.424;2023-04-25T11:48:59;23.80;44.30
22290;DHT22;11313;50.116;8.424;2023-04-25T11:51:24;23.80;44.30
22290;DHT22;11313;50.116;8.424;2023-04-25T11:53:51;23.80;44.30
22290;DHT22;11313;50.116;8.424;2023-04-25T11:56:17;23.80;44.30
22290;DHT22;11313;50.116;8.424;2023-04-25T11:58:59;23.80;44.30
22290;DHT22;11313;50.116;8.424;2023-04-25T12:01:40;23.80;44.30
22290;DHT22;11313;50.116;8.424;2023-04-25T12:04:25;23.80;44.30
22290;DHT22;11313;50.116;8.424;2023-04-25T12:06:52;23.80;44.30
22290;DHT22;11313;50.116;8.424;2023-04-25T12:09:38;23.80;44.40
22290;DHT22;11313;50.116;8.424;2023-04-25T12:12:05;23.80;44.30
22290;DHT22;11313;50.116;8.424;2023-04-25T12:14:32;23.80;44.30
22290;DHT22;11313;50.116;8.424;2023-04-25T12:17:00;23.70;44.30
22290;DHT22;11313;50.116;8.424;2023-04-25T12:19:34;23.70;44.30
22290;DHT22;11313;50.116;8.424;2023-04-25T12:22:01;23.80;44.30
22290;DHT22;11313;50.116;8.424;2023-04-25T12:24:28;23.80;44.40
22290;DHT22;11313;50.116;8.424;2023-04-25T12:26:59;23.80;44.30
22290;DHT22;11313;50.116;8.424;2023-04-25T12:29:27;23.80;44.30
22290;DHT22;11313;50.116;8.424;2023-04-25T12:31:54;23.80;44.30
22290;DHT22;11313;50.116;8.424;2023-04-25T12:34:21;23.80;44.30
22290;DHT22;11313;50.116;8.424;2023-04-25T12:36:47;23.70;44.30
22290;DHT22;11313;50.116;8.424;2023-04-25T12:39:21;23.70;44.30
22290;DHT22;11313;50.116;8.424;2023-04-25T12:41:47;23.70;44.30
22290;DHT22;11313;50.116;8.424;2023-04-25T12:44:13;23.70;44.30
22290;DHT22;11313;50.116;8.424;2023-04-25T12:46:39;23.70;44.40
22290;DHT22;11313;50.116;8.424;2023-04-25T12:49:06;23.70;44.30
22290;DHT22;11313;50.116;8.424;2023-04-25T12:51:35;23.70;44.40
22290;DHT22;11313;50.116;8.424;2023-04-25T12:54:02;23.70;44.40
22290;DHT22;11313;50.116;8.424;2023-04-25T12:56:29;23.70;44.40
22290;DHT22;11313;50.116;8.424;2023-04-25T12:58:55;23.70;44.40
22290;DHT22;11313;50.116;8.424;2023-04-25T13:01:21;23.70;44.40
22290;DHT22;11313;50.116;8.424;2023-04-25T13:03:47;23.70;44.30
22290;DHT22;11313;50.116;8.424;2023-04-25T13:06:13;23.70;44.40
22290;DHT22;11313;50.116;8.424;2023-04-25T13:08:39;23.70;44.30
22290;DHT22;11313;50.116;8.424;2023-04-25T13:11:05;23.70;44.40
22290;DHT22;11313;50.116;8.424;2023-04-25T13:13:31;23.70;44.40
22290;DHT22;11313;50.116;8.424;2023-04-25T13:15:57;23.70;44.40
22290;DHT22;11313;50.116;8.424;2023-04-25T13:18:23;23.70;44.30
22290;DHT22;11313;50.116;8.424;2023-04-25T13:20:52;23.70;44.40
22290;DHT22;11313;50.116;8.424;2023-04-25T13:23:18;23.70;44.40
22290;DHT22;11313;50.116;8.424;2023-04-25T13:25:44;23.70;44.40
22290;DHT22;11313;50.116;8.424;2023-04-25T13:28:10;23.70;44.40
22290;DHT22;11313;50.116;8.424;2023-04-25T13:30:36;23.70;44.40
22290;DHT22;11313;50.116;8.424;2023-04-25T13:33:02;23.70;44.40
22290;DHT22;11313;50.116;8.424;2023-04-25T13:35:29;23.70;44.40
22290;DHT22;11313;50.116;8.424;2023-04-25T13:37:55;23.60;44.30
22290;DHT22;11313;50.116;8.424;2023-04-25T13:40:21;23.60;44.40
22290;DHT22;11313;50.116;8.424;2023-04-25T13:42:46;23.70;44.40
22290;DHT22;11313;50.116;8.424;2023-04-25T13:45:12;23.70;44.40
22290;DHT22;11313;50.116;8.424;2023-04-25T13:47:38;23.70;44.40
22290;DHT22;11313;50.116;8.424;2023-04-25T13:50:04;23.70;44.40
22290;DHT22;11313;50.116;8.424;2023-04-25T13:52:31;23.70;44.40
22290;DHT22;11313;50.116;8.424;2023-04-25T13:54:57;23.60;44.40
22290;DHT22;11313;50.116;8.424;2023-04-25T13:57:23;23.60;44.40
22290;DHT22;11313;50.116;8.424;2023-04-25T13:59:50;23.60;44.40
22290;DHT22;11313;50.116;8.424;2023-04-25T14:02:15;23.60;44.40
22290;DHT22;11313;50.116;8.424;2023-04-25T14:04:41;23.60;44.40
22290;DHT22;11313;50.116;8.424;2023-04-25T14:07:07;23.60;44.40
22290;DHT22;11313;50.116;8.424;2023-04-25T14:09:32;23.60;44.50
22290;DHT22;11313;50.116;8.424;2023-04-25T14:11:58;23.60;44.40
22290;DHT22;11313;50.116;8.424;2023-04-25T14:14:24;23.60;44.50
22290;DHT22;11313;50.116;8.424;2023-04-25T14:16:51;23.60;44.40
22290;DHT22;11313;50.116;8.424;2023-04-25T14:19:19;23.60;44.50
22290;DHT22;11313;50.116;8.424;2023-04-25T14:21:44;23.60;44.50
22290;DHT22;11313;50.116;8.424;2023-04-25T14:24:11;23.60;44.50
22290;DHT22;11313;50.116;8.424;2023-04-25T14:26:37;23.60;44.50
22290;DHT22;11313;50.116;8.424;2023-04-25T14:29:04;23.60;44.50
22290;DHT22;11313;50.116;8.424;2023-04-25T14:31:31;23.60;44.50
22290;DHT22;11313;50.116;8.424;2023-04-25T14:33:56;23.60;44.50
22290;DHT22;11313;50.116;8.424;2023-04-25T14:36:22;23.60;44.50
22290;DHT22;11313;50.116;8.424;2023-04-25T14:38:47;23.60;44.50
22290;DHT22;11313;50.116;8.424;2023-04-25T14:41:13;23.60;44.50
22290;DHT22;11313;50.116;8.424;2023-04-25T14:43:38;23.60;44.50
22290;DHT22;11313;50.116;8.424;2023-04-25T14:46:06;23.60;44.50
22290;DHT22;11313;50.116;8.424;2023-04-25T14:48:32;23.60;44.50
22290;DHT22;11313;50.116;8.424;2023-04-25T14:50:57;23.60;44.50
22290;DHT22;11313;50.116;8.424;2023-04-25T14:53:23;23.60;44.50
22290;DHT22;11313;50.116;8.424;2023-04-25T14:55:49;23.60;44.50
22290;DHT22;11313;50.116;8.424;2023-04-25T14:58:14;23.50;44.50
22290;DHT22;11313;50.116;8.424;2023-04-25T15:00:40;23.60;44.60
22290;DHT22;11313;50.116;8.424;2023-04-25T15:03:06;23.60;44.60
22290;DHT22;11313;50.116;8.424;2023-04-25T15:05:33;23.60;45.20
22290;DHT22;11313;50.116;8.424;2023-04-25T15:07:59;23.60;44.60
22290;DHT22;11313;50.116;8.424;2023-04-25T15:10:25;23.60;44.60
22290;DHT22;11313;50.116;8.424;2023-04-25T15:12:51;23.60;44.60
22290;DHT22;11313;50.116;8.424;2023-04-25T15:15:18;23.50;44.50
22290;DHT22;11313;50.116;8.424;2023-04-25T15:17:44;23.60;44.60
22290;DHT22;11313;50.116;8.424;2023-04-25T15:20:12;23.60;44.60
22290;DHT22;11313;50.116;8.424;2023-04-25T15:22:40;23.60;44.60
22290;DHT22;11313;50.116;8.424;2023-04-25T15:25:09;23.60;44.60
22290;DHT22;11313;50.116;8.424;2023-04-25T15:27:36;23.60;44.60
22290;DHT22;11313;50.116;8.424;2023-04-25T15:30:06;23.60;44.60